Startpagina
METAR-TAF:

METAR-TAF

Vliegvelden :

Athene, Griekenland

Luchthaven Athene

breedte: 37-56N, lengte: 023-56E, hoogte: 94 m

Actueel weer

Dit bericht is 20 minuten geleden gemaakt, om 18:50 UTC
Wind 3 kt uit het westen
Temperatuur 18°C
Vochtigheid 77%
Druk 1016 hPa
Zicht 10 km of meer
Weinig wolken op 2000 ft

METAR: LGAV 211850Z 26003KT 9999 FEW020 18/14 Q1016 NOSIG

Tijdstip: 22:10 (19:10 UTC)

Verwachting

Dit bericht is 2 uur en het 10 minuten geleden gemaakt, om 17:00 UTC
Verwachting geldig van 21 om 18 UTC tot 22 om 18 UTC
Wind 3 kt uit variabele richting
Zicht 10 km of meer
Weinig wolken op 2500 ft

TAF: LGAV 211700Z 2118/2218 VRB03KT 9999 FEW025

Waarnemingen en weersverwachtingen van meer dan 4000 vliegvelden (METAR en TAF).

De beschikbare stations zijn de gele en rode punten op de kaart.

Ga met uw muis naar het station om de naam te zien.

Klik dan om waarnemingen en weersverwachtingen te zien.

kaart wijzigen: klik op de groene knoppen met een zwart kruis om in te zoomen, op de groene knop met een streepje om uit te zoomen of op de groene pijlen voor aangrenzende kaarten.


METAR-TAF: